createdAt,value
2018-01-28T00:00:06.114Z,0
2018-01-28T00:01:16.038Z,0
2018-01-28T00:02:26.013Z,0
2018-01-28T00:03:36.200Z,0
2018-01-28T00:04:46.486Z,0
2018-01-28T00:05:56.715Z,0
2018-01-28T00:07:06.883Z,0
2018-01-28T00:08:17.136Z,0
2018-01-28T00:09:27.102Z,0
2018-01-28T00:10:37.216Z,0
2018-01-28T00:11:47.364Z,0
2018-01-28T00:12:57.543Z,0
2018-01-28T00:14:07.755Z,0
2018-01-28T00:15:17.968Z,0
2018-01-28T00:16:28.159Z,0
2018-01-28T00:17:38.417Z,0
2018-01-28T00:18:48.594Z,0
2018-01-28T00:19:58.767Z,0
2018-01-28T00:21:08.909Z,0
2018-01-28T00:22:19.041Z,0
2018-01-28T00:23:29.205Z,0
2018-01-28T00:24:39.424Z,0
2018-01-28T00:25:49.538Z,0
2018-01-28T00:26:59.764Z,0
2018-01-28T00:28:10.038Z,0
2018-01-28T00:29:21.149Z,0
2018-01-28T00:30:31.068Z,0
2018-01-28T00:31:41.229Z,0
2018-01-28T00:32:51.420Z,0
2018-01-28T00:34:01.580Z,0
2018-01-28T00:35:11.796Z,0
2018-01-28T00:36:21.930Z,0
2018-01-28T00:37:31.859Z,0
2018-01-28T00:38:42.033Z,0
2018-01-28T00:39:52.191Z,0
2018-01-28T00:41:02.358Z,0
2018-01-28T00:42:12.650Z,0
2018-01-28T00:43:22.852Z,0
2018-01-28T00:44:33.115Z,0
2018-01-28T00:45:43.033Z,0
2018-01-28T00:46:53.182Z,0
2018-01-28T00:48:03.337Z,0
2018-01-28T00:49:13.468Z,0
2018-01-28T00:50:23.863Z,0
2018-01-28T00:51:34.012Z,0
2018-01-28T00:52:44.138Z,0
2018-01-28T00:53:54.265Z,0
2018-01-28T00:55:04.498Z,0
2018-01-28T00:56:14.440Z,0
2018-01-28T00:57:24.215Z,0
2018-01-28T00:58:34.357Z,0
2018-01-28T00:59:44.514Z,0
2018-01-28T01:00:54.646Z,0
2018-01-28T01:02:04.823Z,0
2018-01-28T01:03:15.005Z,0
2018-01-28T01:04:24.977Z,0
2018-01-28T01:05:35.110Z,0
2018-01-28T01:06:45.299Z,0
2018-01-28T01:07:55.238Z,0
2018-01-28T01:09:05.381Z,0
2018-01-28T01:10:15.523Z,0
2018-01-28T01:11:25.731Z,0
2018-01-28T01:12:35.951Z,0
2018-01-28T01:13:46.085Z,0
2018-01-28T01:14:56.230Z,0
2018-01-28T01:16:06.400Z,0
2018-01-28T01:17:16.302Z,0
2018-01-28T01:18:26.534Z,0
2018-01-28T01:19:36.797Z,0
2018-01-28T01:20:47.076Z,0
2018-01-28T01:21:56.967Z,0
2018-01-28T01:23:08.061Z,0
2018-01-28T01:24:18.223Z,0
2018-01-28T01:25:28.349Z,0
2018-01-28T01:26:38.522Z,0
2018-01-28T01:27:48.670Z,0
2018-01-28T01:28:59.815Z,0
2018-01-28T01:30:09.955Z,0
2018-01-28T01:31:20.094Z,0
2018-01-28T01:32:30.232Z,0
2018-01-28T01:33:40.409Z,0
2018-01-28T01:34:50.684Z,0
2018-01-28T01:36:00.852Z,0
2018-01-28T01:37:11.122Z,0
2018-01-28T01:38:21.365Z,0
2018-01-28T01:39:31.488Z,0
2018-01-28T01:40:41.203Z,0
2018-01-28T01:41:51.140Z,0
2018-01-28T01:43:01.388Z,0
2018-01-28T01:44:11.513Z,0
2018-01-28T01:45:21.659Z,0
2018-01-28T01:46:31.864Z,0
2018-01-28T01:47:42.103Z,0
2018-01-28T01:48:53.213Z,0
2018-01-28T01:50:03.515Z,0
2018-01-28T01:51:13.694Z,0
2018-01-28T01:52:23.949Z,0
2018-01-28T01:53:33.851Z,0
2018-01-28T01:54:44.040Z,0
2018-01-28T01:55:54.164Z,0
2018-01-28T01:57:04.300Z,0
2018-01-28T01:58:14.561Z,0
2018-01-28T01:59:24.768Z,0
2018-01-28T02:00:34.980Z,0
2018-01-28T02:01:45.147Z,0
2018-01-28T02:02:55.298Z,0
2018-01-28T02:04:05.503Z,0
2018-01-28T02:05:15.667Z,0
2018-01-28T02:06:25.802Z,0
2018-01-28T02:07:35.929Z,0
2018-01-28T02:08:46.098Z,0
2018-01-28T02:09:56.252Z,0
2018-01-28T02:11:06.427Z,0
2018-01-28T02:12:16.777Z,0
2018-01-28T02:13:26.947Z,0
2018-01-28T02:14:37.194Z,0
2018-01-28T02:15:47.387Z,0
2018-01-28T02:16:57.655Z,0
2018-01-28T02:18:07.579Z,0
2018-01-28T02:19:17.793Z,0
2018-01-28T02:20:27.944Z,0
2018-01-28T02:21:38.122Z,0
2018-01-28T02:22:48.244Z,0
2018-01-28T02:23:58.446Z,0
2018-01-28T02:25:08.688Z,0
2018-01-28T02:26:18.541Z,0
2018-01-28T02:27:28.670Z,0
2018-01-28T02:28:38.795Z,0
2018-01-28T02:29:48.940Z,0
2018-01-28T02:30:59.053Z,0
2018-01-28T02:32:09.182Z,0
2018-01-28T02:33:19.311Z,0
2018-01-28T02:34:29.457Z,0
2018-01-28T02:35:39.570Z,0
2018-01-28T02:36:49.724Z,0
2018-01-28T02:37:59.849Z,0
2018-01-28T02:39:10.195Z,0
2018-01-28T02:40:20.327Z,0
2018-01-28T02:41:31.148Z,0
2018-01-28T02:42:41.317Z,0
2018-01-28T02:43:51.176Z,0
2018-01-28T02:45:01.314Z,0
2018-01-28T02:46:11.428Z,0
2018-01-28T02:47:21.595Z,0
2018-01-28T02:48:31.781Z,0
2018-01-28T02:49:41.922Z,0
2018-01-28T02:50:52.104Z,0
2018-01-28T02:52:02.275Z,0
2018-01-28T02:53:12.472Z,0
2018-01-28T02:54:22.596Z,0
2018-01-28T02:55:32.735Z,0
2018-01-28T02:56:42.856Z,0
2018-01-28T02:57:53.035Z,0
2018-01-28T02:59:03.189Z,0
2018-01-28T03:00:13.343Z,0
2018-01-28T03:01:23.468Z,0
2018-01-28T03:02:33.569Z,0
2018-01-28T03:03:43.679Z,0
2018-01-28T03:04:53.843Z,0
2018-01-28T03:06:04.036Z,0
2018-01-28T03:07:14.018Z,0
2018-01-28T03:08:24.146Z,0
2018-01-28T03:09:34.265Z,0
2018-01-28T03:10:44.393Z,0
2018-01-28T03:11:54.600Z,0
2018-01-28T03:13:04.595Z,0
2018-01-28T03:14:14.446Z,0
2018-01-28T03:15:24.555Z,0
2018-01-28T03:16:34.690Z,0
2018-01-28T03:17:44.797Z,0
2018-01-28T03:18:54.930Z,0
2018-01-28T03:20:05.149Z,0
2018-01-28T03:21:15.270Z,0
2018-01-28T03:22:25.412Z,0
2018-01-28T03:23:35.538Z,0
2018-01-28T03:24:45.654Z,0
2018-01-28T03:25:55.659Z,0
2018-01-28T03:27:05.779Z,0
2018-01-28T03:28:15.919Z,0
2018-01-28T03:29:26.162Z,0
2018-01-28T03:30:36.270Z,0
2018-01-28T03:31:46.454Z,0
2018-01-28T03:32:56.632Z,0
2018-01-28T03:34:06.594Z,0
2018-01-28T03:35:16.730Z,0
2018-01-28T03:36:26.847Z,0
2018-01-28T03:37:37.046Z,0
2018-01-28T03:38:47.216Z,0
2018-01-28T03:39:57.368Z,0
2018-01-28T03:41:07.483Z,0
2018-01-28T03:42:17.703Z,0
2018-01-28T03:43:27.813Z,0
2018-01-28T03:44:38.148Z,0
2018-01-28T03:45:48.301Z,0
2018-01-28T03:46:58.424Z,0
2018-01-28T03:48:08.571Z,0
2018-01-28T03:49:18.704Z,0
2018-01-28T03:50:28.324Z,0
2018-01-28T03:51:38.447Z,0
2018-01-28T03:52:48.776Z,0
2018-01-28T03:53:58.687Z,0
2018-01-28T03:55:08.926Z,0
2018-01-28T03:56:19.123Z,0
2018-01-28T03:57:29.263Z,0
2018-01-28T03:58:39.392Z,0
2018-01-28T03:59:49.528Z,0
2018-01-28T04:00:59.651Z,0
2018-01-28T04:02:09.778Z,0
2018-01-28T04:03:20.020Z,0
2018-01-28T04:04:29.890Z,0
2018-01-28T04:05:40.001Z,0
2018-01-28T04:06:50.160Z,0
2018-01-28T04:08:00.440Z,0
2018-01-28T04:09:10.662Z,0
2018-01-28T04:10:20.431Z,0
2018-01-28T04:11:30.596Z,0
2018-01-28T04:12:40.804Z,0
2018-01-28T04:13:51.005Z,0
2018-01-28T04:15:01.202Z,0
2018-01-28T04:16:11.339Z,0
2018-01-28T04:17:21.447Z,0
2018-01-28T04:18:31.567Z,0
2018-01-28T04:19:41.748Z,0
2018-01-28T04:20:51.951Z,0
2018-01-28T04:22:02.221Z,0
2018-01-28T04:23:13.315Z,0
2018-01-28T04:24:23.474Z,0
2018-01-28T04:25:33.608Z,0
2018-01-28T04:26:44.052Z,0
2018-01-28T04:27:54.357Z,0
2018-01-28T04:29:04.543Z,0
2018-01-28T04:30:15.658Z,0
2018-01-28T04:31:25.868Z,0
2018-01-28T04:32:36.133Z,0
2018-01-28T04:33:46.303Z,0
2018-01-28T04:34:56.537Z,0
2018-01-28T04:36:06.494Z,0
2018-01-28T04:37:16.633Z,0
2018-01-28T04:38:26.823Z,0
2018-01-28T04:39:36.985Z,0
2018-01-28T04:40:47.241Z,0
2018-01-28T04:41:57.411Z,0
2018-01-28T04:43:07.294Z,0
2018-01-28T04:44:17.402Z,0
2018-01-28T04:45:27.253Z,0
2018-01-28T04:46:37.390Z,0
2018-01-28T04:47:47.516Z,0
2018-01-28T04:48:57.465Z,0
2018-01-28T04:50:07.682Z,0
2018-01-28T04:51:17.809Z,0
2018-01-28T04:52:27.995Z,0
2018-01-28T04:53:38.270Z,0
2018-01-28T04:54:48.419Z,0
2018-01-28T04:55:58.548Z,0
2018-01-28T04:57:08.774Z,0
2018-01-28T04:58:18.956Z,0
2018-01-28T04:59:29.210Z,0
2018-01-28T05:00:39.314Z,0
2018-01-28T05:01:49.176Z,0
2018-01-28T05:02:59.388Z,0
2018-01-28T05:04:09.705Z,0
2018-01-28T05:05:19.894Z,0
2018-01-28T05:06:30.217Z,0
2018-01-28T05:07:40.369Z,0
2018-01-28T05:08:50.482Z,0
2018-01-28T05:10:00.394Z,0
2018-01-28T05:11:10.539Z,0
2018-01-28T05:12:20.680Z,0
2018-01-28T05:13:30.892Z,0
2018-01-28T05:14:41.076Z,0
2018-01-28T05:15:51.338Z,0
2018-01-28T05:17:01.505Z,0
2018-01-28T05:18:11.619Z,0
2018-01-28T05:19:21.772Z,0
2018-01-28T05:20:31.922Z,0
2018-01-28T05:21:41.873Z,0
2018-01-28T05:22:51.991Z,0
2018-01-28T05:24:02.102Z,0
2018-01-28T05:25:12.246Z,0
2018-01-28T05:26:22.134Z,0
2018-01-28T05:27:32.278Z,0
2018-01-28T05:28:42.452Z,0
2018-01-28T05:29:52.625Z,0
2018-01-28T05:31:02.764Z,0
2018-01-28T05:32:12.984Z,0
2018-01-28T05:33:23.140Z,0
2018-01-28T05:34:33.495Z,0
2018-01-28T05:35:43.659Z,0
2018-01-28T05:36:53.879Z,0
2018-01-28T05:38:04.070Z,0
2018-01-28T05:39:14.242Z,0
2018-01-28T05:40:24.344Z,0
2018-01-28T05:41:34.449Z,0
2018-01-28T05:42:44.574Z,0
2018-01-28T05:43:54.703Z,0
2018-01-28T05:45:04.913Z,0
2018-01-28T05:46:15.070Z,0
2018-01-28T05:47:25.302Z,0
2018-01-28T05:48:35.395Z,0
2018-01-28T05:49:45.526Z,0
2018-01-28T05:50:55.417Z,0
2018-01-28T05:52:05.531Z,0
2018-01-28T05:53:15.722Z,0
2018-01-28T05:54:25.887Z,0
2018-01-28T05:55:36.069Z,0
2018-01-28T05:56:45.835Z,0
2018-01-28T05:57:55.970Z,0
2018-01-28T05:59:06.178Z,0
2018-01-28T06:00:16.339Z,0
2018-01-28T06:01:26.719Z,0
2018-01-28T06:02:36.875Z,0
2018-01-28T06:03:47.003Z,0
2018-01-28T06:04:57.252Z,0
2018-01-28T06:06:07.423Z,0
2018-01-28T06:07:17.634Z,0
2018-01-28T06:08:27.760Z,0
2018-01-28T06:09:37.902Z,0
2018-01-28T06:10:48.027Z,0
2018-01-28T06:11:58.168Z,0
2018-01-28T06:13:08.334Z,0
2018-01-28T06:14:18.225Z,0
2018-01-28T06:15:28.359Z,0
2018-01-28T06:16:38.563Z,0
2018-01-28T06:17:48.760Z,0
2018-01-28T06:18:58.926Z,0
2018-01-28T06:20:09.048Z,0
2018-01-28T06:21:19.170Z,0
2018-01-28T06:22:29.280Z,0
2018-01-28T06:23:39.442Z,0
2018-01-28T06:24:49.594Z,0
2018-01-28T06:25:59.716Z,0
2018-01-28T06:27:09.856Z,0
2018-01-28T06:28:20.007Z,0
2018-01-28T06:29:30.145Z,0
2018-01-28T06:30:40.253Z,0
2018-01-28T06:31:50.395Z,0
2018-01-28T06:33:00.634Z,0
2018-01-28T06:34:10.767Z,0
2018-01-28T06:35:20.912Z,0
2018-01-28T06:36:30.806Z,0
2018-01-28T06:37:40.964Z,4
2018-01-28T06:38:51.166Z,0
2018-01-28T06:40:01.301Z,4
2018-01-28T06:41:11.168Z,4
2018-01-28T06:42:21.347Z,4
2018-01-28T06:43:31.527Z,8
2018-01-28T06:44:41.675Z,8
2018-01-28T06:45:51.784Z,8
2018-01-28T06:47:01.958Z,8
2018-01-28T06:48:12.178Z,12
2018-01-28T06:49:22.296Z,8
2018-01-28T06:50:32.451Z,12
2018-01-28T06:51:42.760Z,16
2018-01-28T06:52:52.979Z,16
2018-01-28T06:54:03.160Z,20
2018-01-28T06:55:13.330Z,20
2018-01-28T06:56:23.494Z,20
2018-01-28T06:57:33.609Z,20
2018-01-28T06:58:43.730Z,20
2018-01-28T06:59:53.910Z,24
2018-01-28T07:01:04.031Z,28
2018-01-28T07:02:13.928Z,32
2018-01-28T07:03:24.052Z,28
2018-01-28T07:04:34.251Z,36
2018-01-28T07:05:44.442Z,36
2018-01-28T07:06:54.646Z,36
2018-01-28T07:08:04.861Z,44
2018-01-28T07:09:15.955Z,48
2018-01-28T07:10:26.124Z,48
2018-01-28T07:11:36.254Z,56
2018-01-28T07:12:46.387Z,68
2018-01-28T07:13:56.599Z,76
2018-01-28T07:15:06.717Z,72
2018-01-28T07:16:16.922Z,72
2018-01-28T07:17:27.088Z,68
2018-01-28T07:18:36.962Z,72
2018-01-28T07:19:47.189Z,80
2018-01-28T07:20:57.422Z,88
2018-01-28T07:22:07.550Z,104
2018-01-28T07:23:17.725Z,108
2018-01-28T07:24:27.857Z,112
2018-01-28T07:25:38.012Z,104
2018-01-28T07:26:48.155Z,128
2018-01-28T07:27:58.331Z,128
2018-01-28T07:29:08.469Z,124
2018-01-28T07:30:18.394Z,112
2018-01-28T07:31:28.527Z,136
2018-01-28T07:32:38.664Z,136
2018-01-28T07:33:48.866Z,152
2018-01-28T07:34:58.999Z,184
2018-01-28T07:36:08.678Z,212
2018-01-28T07:37:18.833Z,220
2018-01-28T07:38:28.970Z,212
2018-01-28T07:39:39.172Z,216
2018-01-28T07:40:49.290Z,220
2018-01-28T07:41:59.397Z,196
2018-01-28T07:43:09.633Z,176
2018-01-28T07:44:19.795Z,160
2018-01-28T07:45:29.934Z,144
2018-01-28T07:46:40.069Z,160
2018-01-28T07:47:50.205Z,168
2018-01-28T07:49:00.417Z,164
2018-01-28T07:50:10.593Z,208
2018-01-28T07:51:20.845Z,252
2018-01-28T07:52:31.006Z,236
2018-01-28T07:53:41.163Z,212
2018-01-28T07:54:51.436Z,216
2018-01-28T07:56:01.577Z,244
2018-01-28T07:57:11.827Z,312
2018-01-28T07:58:22.173Z,464
2018-01-28T07:59:32.296Z,464
2018-01-28T08:00:42.423Z,420
2018-01-28T08:01:52.635Z,428
2018-01-28T08:03:02.920Z,428
2018-01-28T08:04:13.093Z,364
2018-01-28T08:05:23.375Z,528
2018-01-28T08:06:33.508Z,540
2018-01-28T08:07:43.665Z,660
2018-01-28T08:08:53.825Z,668
2018-01-28T08:10:03.973Z,580
2018-01-28T08:11:14.121Z,920
2018-01-28T08:12:24.288Z,1068
2018-01-28T08:13:34.504Z,1084
2018-01-28T08:14:44.666Z,1372
2018-01-28T08:15:54.915Z,1580
2018-01-28T08:17:05.072Z,1232
2018-01-28T08:18:15.238Z,844
2018-01-28T08:19:25.377Z,984
2018-01-28T08:20:35.497Z,1020
2018-01-28T08:21:45.653Z,1432
2018-01-28T08:22:55.782Z,972
2018-01-28T08:24:06.025Z,832
2018-01-28T08:25:16.255Z,752
2018-01-28T08:26:26.369Z,636
2018-01-28T08:27:36.554Z,680
2018-01-28T08:28:46.787Z,560
2018-01-28T08:29:56.670Z,532
2018-01-28T08:31:06.844Z,584
2018-01-28T08:32:16.989Z,756
2018-01-28T08:33:27.132Z,896
2018-01-28T08:34:37.303Z,776
2018-01-28T08:35:47.601Z,1028
2018-01-28T08:36:57.772Z,828
2018-01-28T08:38:07.634Z,756
2018-01-28T08:39:17.869Z,660
2018-01-28T08:40:28.046Z,684
2018-01-28T08:41:38.335Z,740
2018-01-28T08:42:48.508Z,940
2018-01-28T08:43:58.705Z,1032
2018-01-28T08:45:08.893Z,1168
2018-01-28T08:46:19.350Z,1092
2018-01-28T08:47:29.318Z,1068
2018-01-28T08:48:39.454Z,1068
2018-01-28T08:49:49.605Z,1044
2018-01-28T08:50:59.747Z,1300
2018-01-28T08:52:09.926Z,1184
2018-01-28T08:53:20.226Z,2288
2018-01-28T08:54:30.374Z,1312
2018-01-28T08:55:40.513Z,1324
2018-01-28T08:56:50.642Z,1236
2018-01-28T08:58:01.781Z,1116
2018-01-28T08:59:11.928Z,888
2018-01-28T09:00:22.319Z,820
2018-01-28T09:01:32.603Z,632
2018-01-28T09:02:42.788Z,600
2018-01-28T09:03:53.005Z,832
2018-01-28T09:05:03.142Z,1172
2018-01-28T09:06:13.369Z,2340
2018-01-28T09:07:23.544Z,2056
2018-01-28T09:08:33.737Z,1948
2018-01-28T09:09:43.879Z,1376
2018-01-28T09:10:54.059Z,1620
2018-01-28T09:12:04.184Z,1652
2018-01-28T09:13:14.297Z,1372
2018-01-28T09:14:24.517Z,1148
2018-01-28T09:15:34.738Z,892
2018-01-28T09:16:45.025Z,724
2018-01-28T09:17:55.236Z,608
2018-01-28T09:19:05.374Z,556
2018-01-28T09:20:15.545Z,564
2018-01-28T09:21:25.782Z,544
2018-01-28T09:22:36.118Z,624
2018-01-28T09:23:46.335Z,616
2018-01-28T09:24:56.515Z,692
2018-01-28T09:26:06.760Z,1040
2018-01-28T09:27:16.915Z,1060
2018-01-28T09:28:26.834Z,868
2018-01-28T09:29:36.635Z,1024
2018-01-28T09:30:46.822Z,1256
2018-01-28T09:31:56.651Z,1260
2018-01-28T09:33:06.820Z,1344
2018-01-28T09:34:16.975Z,1388
2018-01-28T09:35:27.144Z,1784
2018-01-28T09:36:37.293Z,1812
2018-01-28T09:37:47.471Z,2044
2018-01-28T09:38:57.652Z,2376
2018-01-28T09:40:07.884Z,2180
2018-01-28T09:41:17.818Z,2728
2018-01-28T09:42:28.008Z,2428
2018-01-28T09:43:37.940Z,2600
2018-01-28T09:44:48.057Z,2984
2018-01-28T09:45:58.201Z,3336
2018-01-28T09:47:08.371Z,3368
2018-01-28T09:48:18.306Z,3620
2018-01-28T09:49:28.486Z,2844
2018-01-28T09:50:38.641Z,2488
2018-01-28T09:51:48.777Z,2616
2018-01-28T09:52:58.927Z,2772
2018-01-28T09:54:08.801Z,2948
2018-01-28T09:55:18.988Z,2560
2018-01-28T09:56:29.165Z,2140
2018-01-28T09:57:39.432Z,2016
2018-01-28T09:58:49.641Z,1904
2018-01-28T09:59:59.944Z,1912
2018-01-28T10:01:10.074Z,1856
2018-01-28T10:02:20.217Z,1748
2018-01-28T10:03:30.100Z,1580
2018-01-28T10:04:40.325Z,1548
2018-01-28T10:05:50.516Z,1548
2018-01-28T10:07:00.670Z,1352
2018-01-28T10:08:10.875Z,1280
2018-01-28T10:09:21.084Z,1088
2018-01-28T10:10:31.295Z,1040
2018-01-28T10:11:41.487Z,996
2018-01-28T10:12:51.397Z,1064
2018-01-28T10:14:01.616Z,1304
2018-01-28T10:15:11.504Z,1852
2018-01-28T10:16:21.620Z,1780
2018-01-28T10:17:31.823Z,1696
2018-01-28T10:18:41.961Z,1660
2018-01-28T10:19:52.134Z,1892
2018-01-28T10:21:02.330Z,2076
2018-01-28T10:22:12.505Z,2768
2018-01-28T10:23:22.760Z,2836
2018-01-28T10:24:32.999Z,2280
2018-01-28T10:25:42.916Z,1884
2018-01-28T10:26:53.125Z,1656
2018-01-28T10:28:03.111Z,1824
2018-01-28T10:29:13.280Z,2544
2018-01-28T10:30:23.553Z,2264
2018-01-28T10:31:33.762Z,2148
2018-01-28T10:32:43.995Z,1764
2018-01-28T10:33:53.905Z,1848
2018-01-28T10:35:04.052Z,2072
2018-01-28T10:36:15.249Z,2140
2018-01-28T10:37:25.456Z,2420
2018-01-28T10:38:35.662Z,1868
2018-01-28T10:39:45.919Z,1204
2018-01-28T10:40:56.152Z,1852
2018-01-28T10:42:06.311Z,2372
2018-01-28T10:43:16.486Z,2132
2018-01-28T10:44:26.683Z,2484
2018-01-28T10:45:36.913Z,1840
2018-01-28T10:46:47.153Z,1196
2018-01-28T10:47:57.395Z,1064
2018-01-28T10:49:07.612Z,1424
2018-01-28T10:50:17.893Z,1820
2018-01-28T10:51:28.245Z,1748
2018-01-28T10:52:38.475Z,2568
2018-01-28T10:53:48.652Z,2768
2018-01-28T10:54:58.815Z,2028
2018-01-28T10:56:08.980Z,2220
2018-01-28T10:57:19.163Z,2384
2018-01-28T10:58:29.387Z,1980
2018-01-28T10:59:39.588Z,2328
2018-01-28T11:00:49.861Z,3432
2018-01-28T11:02:00.085Z,5248
2018-01-28T11:03:10.296Z,4936
2018-01-28T11:04:20.584Z,4272
2018-01-28T11:05:30.743Z,4508
2018-01-28T11:06:40.969Z,5988
2018-01-28T11:07:51.190Z,8652
2018-01-28T11:09:01.466Z,11400
2018-01-28T11:10:11.650Z,10844
2018-01-28T11:11:21.838Z,12900
2018-01-28T11:12:32.088Z,12768
2018-01-28T11:13:42.268Z,14192
2018-01-28T11:14:52.526Z,10248
2018-01-28T11:16:02.456Z,10996
2018-01-28T11:17:12.629Z,9940
2018-01-28T11:18:22.820Z,9872
2018-01-28T11:19:32.984Z,9792
2018-01-28T11:20:43.196Z,8252
2018-01-28T11:21:53.452Z,7908
2018-01-28T11:23:03.637Z,6296
2018-01-28T11:24:13.835Z,5928
2018-01-28T11:25:24.029Z,5584
2018-01-28T11:26:34.214Z,6368
2018-01-28T11:27:44.370Z,6096
2018-01-28T11:28:54.602Z,6920
2018-01-28T11:30:04.899Z,5632
2018-01-28T11:31:15.141Z,5296
2018-01-28T11:32:25.465Z,3732
2018-01-28T11:33:35.639Z,4624
2018-01-28T11:34:45.847Z,3660
2018-01-28T11:35:56.033Z,3600
2018-01-28T11:37:06.231Z,4496
2018-01-28T11:38:16.503Z,4396
2018-01-28T11:39:26.711Z,4940
2018-01-28T11:40:36.989Z,5056
2018-01-28T11:41:47.214Z,3788
2018-01-28T11:42:57.421Z,3464
2018-01-28T11:44:07.581Z,3144
2018-01-28T11:45:17.743Z,3188
2018-01-28T11:46:27.930Z,3796
2018-01-28T11:47:38.201Z,3456
2018-01-28T11:48:48.386Z,3128
2018-01-28T11:49:58.638Z,3428
2018-01-28T11:51:08.920Z,2684
2018-01-28T11:52:19.148Z,2560
2018-01-28T11:53:29.368Z,3860
2018-01-28T11:54:39.549Z,4288
2018-01-28T11:55:49.911Z,3172
2018-01-28T11:57:00.099Z,2088
2018-01-28T11:58:10.258Z,2284
2018-01-28T11:59:20.518Z,2568
2018-01-28T12:00:30.722Z,2936
2018-01-28T12:01:40.905Z,3048
2018-01-28T12:02:51.061Z,3200
2018-01-28T12:04:01.188Z,2960
2018-01-28T12:05:11.375Z,2936
2018-01-28T12:06:21.600Z,2924
2018-01-28T12:07:31.787Z,2660
2018-01-28T12:08:41.982Z,2368
2018-01-28T12:09:52.167Z,1716
2018-01-28T12:11:02.359Z,1612
2018-01-28T12:12:12.549Z,2284
2018-01-28T12:13:22.719Z,2412
2018-01-28T12:14:32.915Z,2608
2018-01-28T12:15:43.097Z,2292
2018-01-28T12:16:53.284Z,1780
2018-01-28T12:18:03.515Z,3116
2018-01-28T12:19:13.816Z,3688
2018-01-28T12:20:24.098Z,4308
2018-01-28T12:21:34.327Z,5316
2018-01-28T12:22:44.495Z,5512
2018-01-28T12:23:54.796Z,4664
2018-01-28T12:25:04.946Z,4112
2018-01-28T12:26:15.220Z,4084
2018-01-28T12:27:25.394Z,3276
2018-01-28T12:28:35.551Z,2676
2018-01-28T12:29:45.722Z,1956
2018-01-28T12:30:55.942Z,1892
2018-01-28T12:32:06.216Z,2784
2018-01-28T12:33:16.213Z,3876
2018-01-28T12:34:26.182Z,3696
2018-01-28T12:35:36.391Z,3612
2018-01-28T12:36:47.573Z,3456
2018-01-28T12:37:57.761Z,3724
2018-01-28T12:39:08.002Z,4552
2018-01-28T12:40:18.206Z,5300
2018-01-28T12:41:28.393Z,5600
2018-01-28T12:42:38.595Z,5852
2018-01-28T12:43:48.906Z,5116
2018-01-28T12:44:58.808Z,5384
2018-01-28T12:46:09.030Z,4856
2018-01-28T12:47:19.226Z,3580
2018-01-28T12:48:29.438Z,2776
2018-01-28T12:49:39.624Z,2356
2018-01-28T12:50:49.825Z,2256
2018-01-28T12:52:00.009Z,2216
2018-01-28T12:53:10.305Z,2120
2018-01-28T12:54:20.475Z,1928
2018-01-28T12:55:30.852Z,2008
2018-01-28T12:56:40.993Z,3208
2018-01-28T12:57:51.172Z,4624
2018-01-28T12:59:01.398Z,4200
2018-01-28T13:00:11.563Z,4780
2018-01-28T13:01:21.776Z,6172
2018-01-28T13:02:32.011Z,5464
2018-01-28T13:03:42.191Z,4424
2018-01-28T13:04:52.532Z,3820
2018-01-28T13:06:02.804Z,5120
2018-01-28T13:07:13.031Z,7324
2018-01-28T13:08:23.230Z,7764
2018-01-28T13:09:33.453Z,6988
2018-01-28T13:10:43.683Z,6244
2018-01-28T13:11:53.865Z,6960
2018-01-28T13:13:04.041Z,7340
2018-01-28T13:14:14.332Z,7964
2018-01-28T13:15:24.463Z,8016
2018-01-28T13:16:34.698Z,7012
2018-01-28T13:17:44.872Z,6060
2018-01-28T13:18:55.115Z,5620
2018-01-28T13:20:05.336Z,6976
2018-01-28T13:21:15.600Z,6516
2018-01-28T13:22:25.884Z,5208
2018-01-28T13:23:36.076Z,5476
2018-01-28T13:24:46.316Z,5928
2018-01-28T13:25:56.588Z,5844
2018-01-28T13:27:07.023Z,5524
2018-01-28T13:28:17.290Z,5736
2018-01-28T13:29:27.269Z,6212
2018-01-28T13:30:37.433Z,6148
2018-01-28T13:31:47.706Z,6256
2018-01-28T13:32:57.886Z,6308
2018-01-28T13:34:08.171Z,6196
2018-01-28T13:35:18.403Z,5988
2018-01-28T13:36:28.585Z,6392
2018-01-28T13:37:38.786Z,6844
2018-01-28T13:38:49.307Z,6960
2018-01-28T13:39:59.600Z,6840
2018-01-28T13:41:09.907Z,6952
2018-01-28T13:42:20.087Z,6700
2018-01-28T13:43:30.326Z,5772
2018-01-28T13:44:40.676Z,5932
2018-01-28T13:45:50.849Z,5700
2018-01-28T13:47:01.073Z,5284
2018-01-28T13:48:11.281Z,5184
2018-01-28T13:49:21.502Z,5388
2018-01-28T13:50:31.750Z,5416
2018-01-28T13:51:41.973Z,5180
2018-01-28T13:52:52.165Z,4896
2018-01-28T13:54:02.355Z,4756
2018-01-28T13:55:12.557Z,4424
2018-01-28T13:56:22.832Z,4312
2018-01-28T13:57:33.036Z,4756
2018-01-28T13:58:43.278Z,4508
2018-01-28T13:59:53.466Z,4372
2018-01-28T14:01:03.633Z,4488
2018-01-28T14:02:13.887Z,4236
2018-01-28T14:03:24.140Z,4080
2018-01-28T14:04:34.317Z,3976
2018-01-28T14:05:44.525Z,3712
2018-01-28T14:06:54.706Z,3528
2018-01-28T14:08:04.900Z,3280
2018-01-28T14:09:15.136Z,3016
2018-01-28T14:10:25.425Z,2788
2018-01-28T14:11:35.697Z,2652
2018-01-28T14:12:46.908Z,2560
2018-01-28T14:13:57.093Z,2492
2018-01-28T14:15:07.284Z,2468
2018-01-28T14:16:17.476Z,2432
2018-01-28T14:17:27.684Z,2424
2018-01-28T14:18:37.913Z,2420
2018-01-28T14:19:48.168Z,2424
2018-01-28T14:20:58.399Z,2220
2018-01-28T14:22:08.655Z,2052
2018-01-28T14:23:18.928Z,2356
2018-01-28T14:24:29.096Z,2588
2018-01-28T14:25:39.276Z,2408
2018-01-28T14:26:49.520Z,2348
2018-01-28T14:27:59.776Z,2304
2018-01-28T14:29:10.016Z,2276
2018-01-28T14:30:20.261Z,2372
2018-01-28T14:31:30.452Z,2252
2018-01-28T14:32:40.630Z,2256
2018-01-28T14:33:50.818Z,2196
2018-01-28T14:35:01.024Z,2092
2018-01-28T14:36:11.350Z,2016
2018-01-28T14:37:21.519Z,1856
2018-01-28T14:38:31.780Z,1604
2018-01-28T14:39:41.995Z,1548
2018-01-28T14:40:52.230Z,1464
2018-01-28T14:42:03.434Z,1504
2018-01-28T14:43:13.636Z,1344
2018-01-28T14:44:23.841Z,1324
2018-01-28T14:45:34.068Z,1252
2018-01-28T14:46:44.310Z,1284
2018-01-28T14:47:54.258Z,1292
2018-01-28T14:49:04.532Z,1160
2018-01-28T14:50:14.787Z,1184
2018-01-28T14:51:25.031Z,1236
2018-01-28T14:52:35.302Z,1284
2018-01-28T14:53:45.538Z,1188
2018-01-28T14:54:55.784Z,1080
2018-01-28T14:56:05.987Z,1040
2018-01-28T14:57:16.185Z,956
2018-01-28T14:58:26.338Z,912
2018-01-28T14:59:36.683Z,900
2018-01-28T15:00:47.878Z,892
2018-01-28T15:01:58.073Z,860
2018-01-28T15:03:08.314Z,784
2018-01-28T15:04:18.563Z,744
2018-01-28T15:05:28.842Z,708
2018-01-28T15:06:39.074Z,688
2018-01-28T15:07:49.351Z,652
2018-01-28T15:08:59.404Z,596
2018-01-28T15:10:09.704Z,612
2018-01-28T15:11:19.896Z,600
2018-01-28T15:12:30.145Z,580
2018-01-28T15:13:40.176Z,576
2018-01-28T15:14:50.502Z,572
2018-01-28T15:16:00.824Z,568
2018-01-28T15:17:11.182Z,560
2018-01-28T15:18:21.507Z,544
2018-01-28T15:19:31.852Z,520
2018-01-28T15:20:42.207Z,472
2018-01-28T15:21:52.463Z,420
2018-01-28T15:23:02.829Z,420
2018-01-28T15:24:13.041Z,416
2018-01-28T15:25:23.554Z,396
2018-01-28T15:26:33.767Z,404
2018-01-28T15:27:43.982Z,392
2018-01-28T15:28:53.865Z,360
2018-01-28T15:30:04.172Z,344
2018-01-28T15:31:14.503Z,308
2018-01-28T15:32:24.783Z,288
2018-01-28T15:33:35.030Z,264
2018-01-28T15:34:45.290Z,256
2018-01-28T15:35:55.504Z,236
2018-01-28T15:37:05.780Z,220
2018-01-28T15:38:16.037Z,192
2018-01-28T15:39:26.281Z,180
2018-01-28T15:40:36.513Z,164
2018-01-28T15:41:46.707Z,152
2018-01-28T15:42:56.960Z,140
2018-01-28T15:44:07.920Z,124
2018-01-28T15:45:18.190Z,108
2018-01-28T15:46:28.485Z,108
2018-01-28T15:47:38.729Z,96
2018-01-28T15:48:48.977Z,84
2018-01-28T15:49:59.226Z,76
2018-01-28T15:51:09.498Z,64
2018-01-28T15:52:19.774Z,56
2018-01-28T15:53:29.986Z,52
2018-01-28T15:54:40.323Z,52
2018-01-28T15:55:50.605Z,48
2018-01-28T15:57:00.639Z,52
2018-01-28T15:58:10.932Z,52
2018-01-28T15:59:21.185Z,52
2018-01-28T16:00:31.671Z,52
2018-01-28T16:01:41.924Z,48
2018-01-28T16:02:52.210Z,44
2018-01-28T16:04:02.480Z,40
2018-01-28T16:05:12.720Z,32
2018-01-28T16:06:22.979Z,24
2018-01-28T16:07:33.226Z,20
2018-01-28T16:08:43.461Z,16
2018-01-28T16:09:54.740Z,16
2018-01-28T16:11:05.012Z,12
2018-01-28T16:12:15.320Z,12
2018-01-28T16:13:25.606Z,12
2018-01-28T16:14:35.870Z,8
2018-01-28T16:15:46.110Z,4
2018-01-28T16:16:56.402Z,8
2018-01-28T16:18:06.595Z,4
2018-01-28T16:19:16.892Z,4
2018-01-28T16:20:27.080Z,4
2018-01-28T16:21:37.360Z,0
2018-01-28T16:22:47.541Z,0
2018-01-28T16:23:57.634Z,4